Aérodrome :
LOGIN :

S'inscrire | Disclaimer

   EN    FR    IT 

 










Légende :    VFR   VFR Marginal   IFR   IFR Intensif   IFR Très Intensif
Visi : 
Plafond : 
>= 8 km
>= 3000ft
5 à 8 km
1000 à 3000 ft
1500m à 5 km
500 à 1000 ft
800 à 1500m
200 à 500 ft
< 800m
< 200 ft
Symboles :   Orages  Brouillard  Fortes neiges  Fortes précipitations  Vent > 20 kt
SIGMETs :   Divers  Orages  Givrage  Turbulence  Onde Orograph.  Cendres Volcan.






- Altitude de l'aérodrome : 1649 ft
- Code IATA : HHN


EDFH - Frankfurt-Hahn Rhineland-Palatinate

DERNIER METAR :
  • 171220Z VRB03KT 9999 FEW011 BKN023 05/03 Q1010

METARs EXPIRÉS :
  • 171150Z 02004KT 340V040 9999 VCSH BKN013CB 02/01 Q1010
  • 171120Z 35009KT 330V030 6000 -SHGS BKN007CB 03/02 Q1010
  • 171050Z 28004KT 210V350 9999 SCT024 06/01 Q1010
  • 171020Z 26004KT 210V330 9999 FEW019 05/01 Q1010
  • 170950Z 28007KT 250V310 9999 SCT012 SCT029 05/02 Q1010
  • 170920Z 28007KT 240V310 9999 SCT010 SCT038 04/02 Q1011
  • 170850Z 30007KT 260V320 9999 SCT009 BKN023 04/02 Q1010
  • 170820Z 30008KT 270V330 9999 BKN005 03/03 Q1010
  • 170750Z 29008KT 9999 BKN005 03/02 Q1010

TAF TAF EDFH
Valide du 17 à 12h jusqu'au 18 à 12h UTC


171100Z 1712/1812 29008KT 9999 BKN020
TEMPO 1712/1721 SHRA BKN020CB
PROB30
TEMPO 1712/1718 4000 TSRA BKN015CB
TEMPO 1721/1808 BKN006
PROB40
TEMPO 1800/1806 3000 -DZ BR BKN003
BECMG 1804/1807 01006KT
TEMPO 1810/1812 SHRA BKN015CB



MET'MAP, la Météo Aéronautique d'un coup d'oeil ! - Copyright ORBIFLY Décembre 2007 - Disclaimer

ORBIFLY MET'MAP TEAM :

Programmation & Développement : Alexandra Zaïnal
Sur une idée originale de : Baudouin d'Aumeries
Soutien technique & logistique : Manuel Goepfert
Assistance : Marc-Olivier Méhu




SOURCES & CREDITS :

   NOAA